sensor_id;sensor_type;location;lat;lon;timestamp;temperature;humidity
418;DHT22;49;48.530;9.200;2024-01-25T00:01:59;13.80;22.80
418;DHT22;49;48.530;9.200;2024-01-25T00:04:28;14.10;22.20
418;DHT22;49;48.530;9.200;2024-01-25T00:06:55;14.10;21.20
418;DHT22;49;48.530;9.200;2024-01-25T00:09:21;14.10;21.30
418;DHT22;49;48.530;9.200;2024-01-25T00:11:48;14.50;20.20
418;DHT22;49;48.530;9.200;2024-01-25T00:14:15;14.30;20.20
418;DHT22;49;48.530;9.200;2024-01-25T00:16:42;14.10;20.80
418;DHT22;49;48.530;9.200;2024-01-25T00:19:09;14.20;20.90
418;DHT22;49;48.530;9.200;2024-01-25T00:21:41;14.50;20.20
418;DHT22;49;48.530;9.200;2024-01-25T00:24:10;14.70;19.80
418;DHT22;49;48.530;9.200;2024-01-25T00:26:37;14.80;19.30
418;DHT22;49;48.530;9.200;2024-01-25T00:29:04;15.00;18.40
418;DHT22;49;48.530;9.200;2024-01-25T00:31:31;15.00;18.40
418;DHT22;49;48.530;9.200;2024-01-25T00:33:58;14.90;18.50
418;DHT22;49;48.530;9.200;2024-01-25T00:36:25;14.80;18.80
418;DHT22;49;48.530;9.200;2024-01-25T00:38:54;14.90;18.50
418;DHT22;49;48.530;9.200;2024-01-25T00:41:21;14.90;18.20
418;DHT22;49;48.530;9.200;2024-01-25T00:43:49;15.00;18.10
418;DHT22;49;48.530;9.200;2024-01-25T00:46:18;14.70;18.80
418;DHT22;49;48.530;9.200;2024-01-25T00:48:45;14.70;19.00
418;DHT22;49;48.530;9.200;2024-01-25T00:51:15;14.40;19.90
418;DHT22;49;48.530;9.200;2024-01-25T00:53:42;14.20;20.60
418;DHT22;49;48.530;9.200;2024-01-25T00:56:12;14.10;21.10
418;DHT22;49;48.530;9.200;2024-01-25T00:58:39;14.00;21.30
418;DHT22;49;48.530;9.200;2024-01-25T01:01:07;14.10;21.40
418;DHT22;49;48.530;9.200;2024-01-25T01:03:35;14.20;20.90
418;DHT22;49;48.530;9.200;2024-01-25T01:06:03;14.00;21.00
418;DHT22;49;48.530;9.200;2024-01-25T01:08:30;14.10;21.90
418;DHT22;49;48.530;9.200;2024-01-25T01:10:57;14.10;21.20
418;DHT22;49;48.530;9.200;2024-01-25T01:13:26;14.10;21.20
418;DHT22;49;48.530;9.200;2024-01-25T01:15:52;14.10;21.60
418;DHT22;49;48.530;9.200;2024-01-25T01:18:19;13.90;22.30
418;DHT22;49;48.530;9.200;2024-01-25T01:20:46;13.80;22.50
418;DHT22;49;48.530;9.200;2024-01-25T01:23:13;14.00;22.20
418;DHT22;49;48.530;9.200;2024-01-25T01:25:40;13.90;22.80
418;DHT22;49;48.530;9.200;2024-01-25T01:28:07;13.90;23.20
418;DHT22;49;48.530;9.200;2024-01-25T01:30:35;13.90;23.70
418;DHT22;49;48.530;9.200;2024-01-25T01:33:02;14.00;24.30
418;DHT22;49;48.530;9.200;2024-01-25T01:35:29;14.10;23.40
418;DHT22;49;48.530;9.200;2024-01-25T01:37:56;14.10;23.30
418;DHT22;49;48.530;9.200;2024-01-25T01:40:23;14.30;22.60
418;DHT22;49;48.530;9.200;2024-01-25T01:42:50;14.50;21.60
418;DHT22;49;48.530;9.200;2024-01-25T01:45:16;14.50;21.10
418;DHT22;49;48.530;9.200;2024-01-25T01:47:45;14.60;20.90
418;DHT22;49;48.530;9.200;2024-01-25T01:50:12;14.60;20.70
418;DHT22;49;48.530;9.200;2024-01-25T01:52:39;14.70;19.90
418;DHT22;49;48.530;9.200;2024-01-25T01:55:07;14.60;20.30
418;DHT22;49;48.530;9.200;2024-01-25T01:57:34;14.60;20.30
418;DHT22;49;48.530;9.200;2024-01-25T02:00:03;14.70;19.80
418;DHT22;49;48.530;9.200;2024-01-25T02:02:33;14.60;20.20
418;DHT22;49;48.530;9.200;2024-01-25T02:05:02;14.70;19.30
418;DHT22;49;48.530;9.200;2024-01-25T02:07:30;14.70;19.40
418;DHT22;49;48.530;9.200;2024-01-25T02:09:57;14.60;20.00
418;DHT22;49;48.530;9.200;2024-01-25T02:12:24;14.70;20.30
418;DHT22;49;48.530;9.200;2024-01-25T02:14:51;14.50;20.80
418;DHT22;49;48.530;9.200;2024-01-25T02:17:18;14.60;20.30
418;DHT22;49;48.530;9.200;2024-01-25T02:19:45;14.70;19.80
418;DHT22;49;48.530;9.200;2024-01-25T02:22:17;14.70;20.00
418;DHT22;49;48.530;9.200;2024-01-25T02:24:44;14.70;19.60
418;DHT22;49;48.530;9.200;2024-01-25T02:27:11;14.70;20.10
418;DHT22;49;48.530;9.200;2024-01-25T02:29:38;14.90;19.00
418;DHT22;49;48.530;9.200;2024-01-25T02:32:05;14.90;18.90
418;DHT22;49;48.530;9.200;2024-01-25T02:34:32;14.90;18.50
418;DHT22;49;48.530;9.200;2024-01-25T02:36:59;14.90;18.80
418;DHT22;49;48.530;9.200;2024-01-25T02:39:27;15.20;17.80
418;DHT22;49;48.530;9.200;2024-01-25T02:41:54;15.20;17.80
418;DHT22;49;48.530;9.200;2024-01-25T02:44:21;14.90;18.80
418;DHT22;49;48.530;9.200;2024-01-25T02:46:48;14.90;19.40
418;DHT22;49;48.530;9.200;2024-01-25T02:49:15;15.00;18.90
418;DHT22;49;48.530;9.200;2024-01-25T02:51:42;15.10;18.80
418;DHT22;49;48.530;9.200;2024-01-25T02:54:09;15.10;19.20
418;DHT22;49;48.530;9.200;2024-01-25T02:56:37;15.00;19.30
418;DHT22;49;48.530;9.200;2024-01-25T02:59:04;14.80;19.80
418;DHT22;49;48.530;9.200;2024-01-25T03:01:38;14.60;21.00
418;DHT22;49;48.530;9.200;2024-01-25T03:04:04;14.40;22.50
418;DHT22;49;48.530;9.200;2024-01-25T03:06:31;14.60;21.70
418;DHT22;49;48.530;9.200;2024-01-25T03:08:58;14.90;20.20
418;DHT22;49;48.530;9.200;2024-01-25T03:11:25;14.90;20.50
418;DHT22;49;48.530;9.200;2024-01-25T03:13:53;15.00;20.50
418;DHT22;49;48.530;9.200;2024-01-25T03:16:20;14.80;22.60
418;DHT22;49;48.530;9.200;2024-01-25T03:18:47;14.60;23.30
418;DHT22;49;48.530;9.200;2024-01-25T03:21:14;14.10;25.80
418;DHT22;49;48.530;9.200;2024-01-25T03:23:41;13.70;27.60
418;DHT22;49;48.530;9.200;2024-01-25T03:26:07;13.70;29.40
418;DHT22;49;48.530;9.200;2024-01-25T03:28:35;13.70;28.60
418;DHT22;49;48.530;9.200;2024-01-25T03:31:04;13.80;29.10
418;DHT22;49;48.530;9.200;2024-01-25T03:33:30;14.00;25.70
418;DHT22;49;48.530;9.200;2024-01-25T03:36:00;13.80;28.80
418;DHT22;49;48.530;9.200;2024-01-25T03:38:28;13.90;26.00
418;DHT22;49;48.530;9.200;2024-01-25T03:40:54;14.20;26.70
418;DHT22;49;48.530;9.200;2024-01-25T03:43:22;13.60;31.50
418;DHT22;49;48.530;9.200;2024-01-25T03:45:49;13.50;31.40
418;DHT22;49;48.530;9.200;2024-01-25T03:48:18;13.50;34.20
418;DHT22;49;48.530;9.200;2024-01-25T03:50:45;13.80;28.80
418;DHT22;49;48.530;9.200;2024-01-25T03:53:12;14.00;30.20
418;DHT22;49;48.530;9.200;2024-01-25T03:55:39;13.90;32.10
418;DHT22;49;48.530;9.200;2024-01-25T03:58:05;13.90;31.40
418;DHT22;49;48.530;9.200;2024-01-25T04:00:32;14.10;31.40
418;DHT22;49;48.530;9.200;2024-01-25T04:02:59;14.30;29.70
418;DHT22;49;48.530;9.200;2024-01-25T04:05:27;14.50;28.30
418;DHT22;49;48.530;9.200;2024-01-25T04:07:54;14.50;28.60
418;DHT22;49;48.530;9.200;2024-01-25T04:10:21;14.50;28.20
418;DHT22;49;48.530;9.200;2024-01-25T04:12:47;14.60;27.80
418;DHT22;49;48.530;9.200;2024-01-25T04:15:14;14.60;28.30
418;DHT22;49;48.530;9.200;2024-01-25T04:17:41;14.40;28.00
418;DHT22;49;48.530;9.200;2024-01-25T04:20:09;14.40;26.00
418;DHT22;49;48.530;9.200;2024-01-25T04:22:37;14.60;24.90
418;DHT22;49;48.530;9.200;2024-01-25T04:25:04;14.70;26.80
418;DHT22;49;48.530;9.200;2024-01-25T04:27:31;14.70;27.30
418;DHT22;49;48.530;9.200;2024-01-25T04:29:58;14.60;27.90
418;DHT22;49;48.530;9.200;2024-01-25T04:32:25;14.50;26.90
418;DHT22;49;48.530;9.200;2024-01-25T04:34:52;14.60;27.40
418;DHT22;49;48.530;9.200;2024-01-25T04:37:18;14.70;27.40
418;DHT22;49;48.530;9.200;2024-01-25T04:39:47;14.50;27.90
418;DHT22;49;48.530;9.200;2024-01-25T04:42:13;14.70;26.20
418;DHT22;49;48.530;9.200;2024-01-25T04:44:40;14.20;29.80
418;DHT22;49;48.530;9.200;2024-01-25T04:47:07;14.00;31.60
418;DHT22;49;48.530;9.200;2024-01-25T04:49:34;14.20;31.90
418;DHT22;49;48.530;9.200;2024-01-25T04:52:01;13.80;34.70
418;DHT22;49;48.530;9.200;2024-01-25T04:54:28;13.70;35.90
418;DHT22;49;48.530;9.200;2024-01-25T04:56:57;14.20;32.00
418;DHT22;49;48.530;9.200;2024-01-25T04:59:24;14.10;31.50
418;DHT22;49;48.530;9.200;2024-01-25T05:01:51;14.10;30.90
418;DHT22;49;48.530;9.200;2024-01-25T05:04:19;13.90;32.60
418;DHT22;49;48.530;9.200;2024-01-25T05:06:46;13.60;35.10
418;DHT22;49;48.530;9.200;2024-01-25T05:09:13;13.70;35.00
418;DHT22;49;48.530;9.200;2024-01-25T05:11:40;13.90;31.70
418;DHT22;49;48.530;9.200;2024-01-25T05:14:08;14.10;30.50
418;DHT22;49;48.530;9.200;2024-01-25T05:16:35;14.10;30.10
418;DHT22;49;48.530;9.200;2024-01-25T05:19:02;14.00;30.20
418;DHT22;49;48.530;9.200;2024-01-25T05:21:28;13.80;32.40
418;DHT22;49;48.530;9.200;2024-01-25T05:23:56;13.80;32.50
418;DHT22;49;48.530;9.200;2024-01-25T05:26:22;13.80;34.10
418;DHT22;49;48.530;9.200;2024-01-25T05:28:49;13.50;35.40
418;DHT22;49;48.530;9.200;2024-01-25T05:31:17;13.70;34.30
418;DHT22;49;48.530;9.200;2024-01-25T05:33:44;13.80;33.00
418;DHT22;49;48.530;9.200;2024-01-25T05:36:11;13.60;33.80
418;DHT22;49;48.530;9.200;2024-01-25T05:38:39;13.60;33.30
418;DHT22;49;48.530;9.200;2024-01-25T05:41:06;13.80;31.60
418;DHT22;49;48.530;9.200;2024-01-25T05:43:33;13.70;31.50
418;DHT22;49;48.530;9.200;2024-01-25T05:46:00;13.40;31.60
418;DHT22;49;48.530;9.200;2024-01-25T05:48:28;13.00;32.10
418;DHT22;49;48.530;9.200;2024-01-25T05:50:55;13.10;31.20
418;DHT22;49;48.530;9.200;2024-01-25T05:53:22;13.40;29.20
418;DHT22;49;48.530;9.200;2024-01-25T05:55:49;13.70;27.70
418;DHT22;49;48.530;9.200;2024-01-25T05:58:15;14.00;24.60
418;DHT22;49;48.530;9.200;2024-01-25T06:00:42;14.10;22.60
418;DHT22;49;48.530;9.200;2024-01-25T06:03:09;13.90;23.70
418;DHT22;49;48.530;9.200;2024-01-25T06:05:37;13.80;23.50
418;DHT22;49;48.530;9.200;2024-01-25T06:08:04;14.00;22.60
418;DHT22;49;48.530;9.200;2024-01-25T06:10:31;13.90;22.10
418;DHT22;49;48.530;9.200;2024-01-25T06:12:58;13.90;22.20
418;DHT22;49;48.530;9.200;2024-01-25T06:15:25;14.10;21.00
418;DHT22;49;48.530;9.200;2024-01-25T06:17:52;14.10;19.90
418;DHT22;49;48.530;9.200;2024-01-25T06:20:19;14.10;19.90
418;DHT22;49;48.530;9.200;2024-01-25T06:22:47;14.10;20.80
418;DHT22;49;48.530;9.200;2024-01-25T06:25:14;14.20;19.30
418;DHT22;49;48.530;9.200;2024-01-25T06:27:41;14.40;19.10
418;DHT22;49;48.530;9.200;2024-01-25T06:30:08;14.20;18.70
418;DHT22;49;48.530;9.200;2024-01-25T06:32:35;14.20;20.00
418;DHT22;49;48.530;9.200;2024-01-25T06:35:03;14.30;19.20
418;DHT22;49;48.530;9.200;2024-01-25T06:37:30;13.90;18.10
418;DHT22;49;48.530;9.200;2024-01-25T06:39:58;13.70;19.60
418;DHT22;49;48.530;9.200;2024-01-25T06:42:25;13.60;19.80
418;DHT22;49;48.530;9.200;2024-01-25T06:44:52;13.80;20.80
418;DHT22;49;48.530;9.200;2024-01-25T06:47:19;14.10;20.80
418;DHT22;49;48.530;9.200;2024-01-25T06:49:46;14.00;19.80
418;DHT22;49;48.530;9.200;2024-01-25T06:52:17;13.90;19.80
418;DHT22;49;48.530;9.200;2024-01-25T06:54:44;13.80;20.40
418;DHT22;49;48.530;9.200;2024-01-25T06:57:12;14.00;21.20
418;DHT22;49;48.530;9.200;2024-01-25T06:59:40;13.90;20.80
418;DHT22;49;48.530;9.200;2024-01-25T07:02:07;13.90;19.10
418;DHT22;49;48.530;9.200;2024-01-25T07:04:34;14.00;19.80
418;DHT22;49;48.530;9.200;2024-01-25T07:07:01;14.00;19.80
418;DHT22;49;48.530;9.200;2024-01-25T07:09:28;14.30;18.80
418;DHT22;49;48.530;9.200;2024-01-25T07:11:55;14.20;18.90
418;DHT22;49;48.530;9.200;2024-01-25T07:14:23;14.30;18.30
418;DHT22;49;48.530;9.200;2024-01-25T07:16:50;14.20;20.00
418;DHT22;49;48.530;9.200;2024-01-25T07:19:17;13.80;18.80
418;DHT22;49;48.530;9.200;2024-01-25T07:21:44;13.90;19.80
418;DHT22;49;48.530;9.200;2024-01-25T07:24:14;13.90;19.70
418;DHT22;49;48.530;9.200;2024-01-25T07:26:41;13.70;19.60
418;DHT22;49;48.530;9.200;2024-01-25T07:29:14;13.50;20.30
418;DHT22;49;48.530;9.200;2024-01-25T07:31:42;13.20;22.00
418;DHT22;49;48.530;9.200;2024-01-25T07:34:09;13.00;22.60
418;DHT22;49;48.530;9.200;2024-01-25T07:36:36;13.20;21.80
418;DHT22;49;48.530;9.200;2024-01-25T07:39:03;13.60;20.70
418;DHT22;49;48.530;9.200;2024-01-25T07:41:30;13.50;20.60
418;DHT22;49;48.530;9.200;2024-01-25T07:43:57;13.60;20.20
418;DHT22;49;48.530;9.200;2024-01-25T07:46:24;13.40;21.90
418;DHT22;49;48.530;9.200;2024-01-25T07:48:53;13.10;22.30
418;DHT22;49;48.530;9.200;2024-01-25T07:51:20;13.00;23.20
418;DHT22;49;48.530;9.200;2024-01-25T07:53:46;12.80;23.20
418;DHT22;49;48.530;9.200;2024-01-25T07:56:13;12.70;24.80
418;DHT22;49;48.530;9.200;2024-01-25T07:58:40;12.70;24.80
418;DHT22;49;48.530;9.200;2024-01-25T08:01:08;12.60;24.70
418;DHT22;49;48.530;9.200;2024-01-25T08:03:35;12.50;25.60
418;DHT22;49;48.530;9.200;2024-01-25T08:06:04;12.80;25.90
418;DHT22;49;48.530;9.200;2024-01-25T08:08:33;13.10;24.00
418;DHT22;49;48.530;9.200;2024-01-25T08:11:00;12.80;24.60
418;DHT22;49;48.530;9.200;2024-01-25T08:13:27;13.10;24.10
418;DHT22;49;48.530;9.200;2024-01-25T08:15:55;12.70;24.80
418;DHT22;49;48.530;9.200;2024-01-25T08:18:23;12.60;25.90
418;DHT22;49;48.530;9.200;2024-01-25T08:20:50;12.80;24.90
418;DHT22;49;48.530;9.200;2024-01-25T08:23:20;12.90;24.70
418;DHT22;49;48.530;9.200;2024-01-25T08:25:47;13.10;23.60
418;DHT22;49;48.530;9.200;2024-01-25T08:28:14;13.00;24.20
418;DHT22;49;48.530;9.200;2024-01-25T08:30:41;13.00;23.90
418;DHT22;49;48.530;9.200;2024-01-25T08:33:08;13.10;24.20
418;DHT22;49;48.530;9.200;2024-01-25T08:35:35;13.30;22.90
418;DHT22;49;48.530;9.200;2024-01-25T08:38:02;13.50;23.40
418;DHT22;49;48.530;9.200;2024-01-25T08:40:30;13.70;21.60
418;DHT22;49;48.530;9.200;2024-01-25T08:42:57;13.90;21.10
418;DHT22;49;48.530;9.200;2024-01-25T08:45:24;13.80;21.10
418;DHT22;49;48.530;9.200;2024-01-25T08:47:51;13.70;21.70
418;DHT22;49;48.530;9.200;2024-01-25T08:50:18;13.60;22.40
418;DHT22;49;48.530;9.200;2024-01-25T08:52:45;13.70;22.80
418;DHT22;49;48.530;9.200;2024-01-25T08:55:12;13.80;21.50
418;DHT22;49;48.530;9.200;2024-01-25T08:57:40;13.60;22.10
418;DHT22;49;48.530;9.200;2024-01-25T09:00:08;13.50;22.60
418;DHT22;49;48.530;9.200;2024-01-25T09:02:36;13.60;22.30
418;DHT22;49;48.530;9.200;2024-01-25T09:05:04;13.90;21.80
418;DHT22;49;48.530;9.200;2024-01-25T09:07:31;14.00;20.60
418;DHT22;49;48.530;9.200;2024-01-25T09:09:59;14.00;21.10
418;DHT22;49;48.530;9.200;2024-01-25T09:12:26;14.30;20.00
418;DHT22;49;48.530;9.200;2024-01-25T09:14:54;14.50;19.50
418;DHT22;49;48.530;9.200;2024-01-25T09:17:21;14.70;18.70
418;DHT22;49;48.530;9.200;2024-01-25T09:19:48;14.80;18.20
418;DHT22;49;48.530;9.200;2024-01-25T09:22:15;14.70;18.10
418;DHT22;49;48.530;9.200;2024-01-25T09:24:43;14.60;18.40
418;DHT22;49;48.530;9.200;2024-01-25T09:27:09;14.40;19.70
418;DHT22;49;48.530;9.200;2024-01-25T09:29:36;14.60;18.80
418;DHT22;49;48.530;9.200;2024-01-25T09:32:07;14.80;19.00
418;DHT22;49;48.530;9.200;2024-01-25T09:34:34;14.80;18.60
418;DHT22;49;48.530;9.200;2024-01-25T09:37:01;14.90;18.10
418;DHT22;49;48.530;9.200;2024-01-25T09:39:28;15.00;17.40
418;DHT22;49;48.530;9.200;2024-01-25T09:41:55;14.90;17.20
418;DHT22;49;48.530;9.200;2024-01-25T09:44:22;15.00;17.60
418;DHT22;49;48.530;9.200;2024-01-25T09:46:50;15.00;16.80
418;DHT22;49;48.530;9.200;2024-01-25T09:49:18;15.00;15.60
418;DHT22;49;48.530;9.200;2024-01-25T09:51:47;15.00;16.00
418;DHT22;49;48.530;9.200;2024-01-25T09:54:16;15.00;16.10
418;DHT22;49;48.530;9.200;2024-01-25T09:56:43;15.00;15.80
418;DHT22;49;48.530;9.200;2024-01-25T09:59:11;14.80;16.30
418;DHT22;49;48.530;9.200;2024-01-25T10:01:40;14.80;16.20
418;DHT22;49;48.530;9.200;2024-01-25T10:04:09;14.90;16.40
418;DHT22;49;48.530;9.200;2024-01-25T10:06:38;15.00;16.00
418;DHT22;49;48.530;9.200;2024-01-25T10:09:05;15.20;16.50
418;DHT22;49;48.530;9.200;2024-01-25T10:11:35;15.30;15.40
418;DHT22;49;48.530;9.200;2024-01-25T10:14:03;15.40;15.50
418;DHT22;49;48.530;9.200;2024-01-25T10:16:30;15.50;15.20
418;DHT22;49;48.530;9.200;2024-01-25T10:18:57;15.50;14.90
418;DHT22;49;48.530;9.200;2024-01-25T10:21:24;15.60;14.90
418;DHT22;49;48.530;9.200;2024-01-25T10:23:55;15.60;14.90
418;DHT22;49;48.530;9.200;2024-01-25T10:26:26;15.80;14.30
418;DHT22;49;48.530;9.200;2024-01-25T10:28:54;15.80;15.10
418;DHT22;49;48.530;9.200;2024-01-25T10:31:23;16.10;14.70
418;DHT22;49;48.530;9.200;2024-01-25T10:33:51;16.10;13.90
418;DHT22;49;48.530;9.200;2024-01-25T10:36:19;15.70;14.50
418;DHT22;49;48.530;9.200;2024-01-25T10:38:48;15.40;15.20
418;DHT22;49;48.530;9.200;2024-01-25T10:41:19;15.80;15.10
418;DHT22;49;48.530;9.200;2024-01-25T10:43:46;16.40;14.00
418;DHT22;49;48.530;9.200;2024-01-25T10:46:14;16.60;12.90
418;DHT22;49;48.530;9.200;2024-01-25T10:48:41;16.60;12.30
418;DHT22;49;48.530;9.200;2024-01-25T10:51:10;16.80;12.40
418;DHT22;49;48.530;9.200;2024-01-25T10:53:39;16.70;12.00
418;DHT22;49;48.530;9.200;2024-01-25T10:56:06;16.90;11.40
418;DHT22;49;48.530;9.200;2024-01-25T10:58:35;16.90;11.10
418;DHT22;49;48.530;9.200;2024-01-25T11:01:02;16.80;11.40
418;DHT22;49;48.530;9.200;2024-01-25T11:03:30;16.30;12.50
418;DHT22;49;48.530;9.200;2024-01-25T11:06:06;15.90;13.10
418;DHT22;49;48.530;9.200;2024-01-25T11:08:33;15.90;13.50
418;DHT22;49;48.530;9.200;2024-01-25T11:11:04;16.00;12.40
418;DHT22;49;48.530;9.200;2024-01-25T11:13:32;16.10;12.70
418;DHT22;49;48.530;9.200;2024-01-25T11:16:13;16.20;12.60
418;DHT22;49;48.530;9.200;2024-01-25T11:18:51;16.40;12.20
418;DHT22;49;48.530;9.200;2024-01-25T11:21:25;16.50;12.30
418;DHT22;49;48.530;9.200;2024-01-25T11:23:59;16.80;11.50
418;DHT22;49;48.530;9.200;2024-01-25T11:26:27;17.00;10.10
418;DHT22;49;48.530;9.200;2024-01-25T11:28:55;17.20;9.60
418;DHT22;49;48.530;9.200;2024-01-25T11:31:23;17.00;10.50
418;DHT22;49;48.530;9.200;2024-01-25T11:33:51;17.10;9.90
418;DHT22;49;48.530;9.200;2024-01-25T11:36:20;17.00;8.90
418;DHT22;49;48.530;9.200;2024-01-25T11:38:50;16.80;9.60
418;DHT22;49;48.530;9.200;2024-01-25T11:41:18;16.70;10.10
418;DHT22;49;48.530;9.200;2024-01-25T11:43:47;16.90;9.20
418;DHT22;49;48.530;9.200;2024-01-25T11:46:15;16.60;9.50
418;DHT22;49;48.530;9.200;2024-01-25T11:48:43;16.50;10.40
418;DHT22;49;48.530;9.200;2024-01-25T11:51:10;16.80;9.60
418;DHT22;49;48.530;9.200;2024-01-25T11:53:37;16.60;9.50
418;DHT22;49;48.530;9.200;2024-01-25T11:56:06;16.90;9.70
418;DHT22;49;48.530;9.200;2024-01-25T11:58:34;16.90;8.40
418;DHT22;49;48.530;9.200;2024-01-25T12:01:02;16.90;8.70
418;DHT22;49;48.530;9.200;2024-01-25T12:03:31;17.10;8.50
418;DHT22;49;48.530;9.200;2024-01-25T12:05:59;17.20;7.70
418;DHT22;49;48.530;9.200;2024-01-25T12:08:26;17.00;8.30
418;DHT22;49;48.530;9.200;2024-01-25T12:11:02;16.50;9.40
418;DHT22;49;48.530;9.200;2024-01-25T12:13:34;16.40;9.90
418;DHT22;49;48.530;9.200;2024-01-25T12:16:03;16.20;10.40
418;DHT22;49;48.530;9.200;2024-01-25T12:18:30;16.10;10.30
418;DHT22;49;48.530;9.200;2024-01-25T12:21:00;16.10;11.00
418;DHT22;49;48.530;9.200;2024-01-25T12:23:31;16.40;10.60
418;DHT22;49;48.530;9.200;2024-01-25T12:26:00;17.10;10.00
418;DHT22;49;48.530;9.200;2024-01-25T12:28:28;17.10;9.10
418;DHT22;49;48.530;9.200;2024-01-25T12:30:57;16.60;8.70
418;DHT22;49;48.530;9.200;2024-01-25T12:33:24;16.20;9.90
418;DHT22;49;48.530;9.200;2024-01-25T12:35:52;16.20;10.00
418;DHT22;49;48.530;9.200;2024-01-25T12:38:22;16.50;9.90
418;DHT22;49;48.530;9.200;2024-01-25T12:40:51;16.80;9.60
418;DHT22;49;48.530;9.200;2024-01-25T12:43:19;17.10;8.40
418;DHT22;49;48.530;9.200;2024-01-25T12:45:47;17.20;7.50
418;DHT22;49;48.530;9.200;2024-01-25T12:48:15;17.20;7.80
418;DHT22;49;48.530;9.200;2024-01-25T12:50:42;17.30;7.70
418;DHT22;49;48.530;9.200;2024-01-25T12:53:10;17.00;8.10
418;DHT22;49;48.530;9.200;2024-01-25T12:55:39;16.50;9.30
418;DHT22;49;48.530;9.200;2024-01-25T12:58:06;16.30;9.30
418;DHT22;49;48.530;9.200;2024-01-25T13:00:33;16.50;10.20
418;DHT22;49;48.530;9.200;2024-01-25T13:03:01;16.60;8.70
418;DHT22;49;48.530;9.200;2024-01-25T13:05:30;16.80;8.70
418;DHT22;49;48.530;9.200;2024-01-25T13:08:00;17.00;7.80
418;DHT22;49;48.530;9.200;2024-01-25T13:10:27;16.60;8.70
418;DHT22;49;48.530;9.200;2024-01-25T13:12:57;16.70;8.10
418;DHT22;49;48.530;9.200;2024-01-25T13:15:24;16.30;8.90
418;DHT22;49;48.530;9.200;2024-01-25T13:17:52;16.30;9.30
418;DHT22;49;48.530;9.200;2024-01-25T13:20:19;16.10;9.80
418;DHT22;49;48.530;9.200;2024-01-25T13:22:46;16.00;10.20
418;DHT22;49;48.530;9.200;2024-01-25T13:25:13;16.10;10.10
418;DHT22;49;48.530;9.200;2024-01-25T13:27:41;16.10;9.70
418;DHT22;49;48.530;9.200;2024-01-25T13:30:11;16.40;9.40
418;DHT22;49;48.530;9.200;2024-01-25T13:32:39;16.50;9.40
418;DHT22;49;48.530;9.200;2024-01-25T13:35:07;16.80;9.10
418;DHT22;49;48.530;9.200;2024-01-25T13:37:34;16.60;9.20
418;DHT22;49;48.530;9.200;2024-01-25T13:40:02;16.30;10.30
418;DHT22;49;48.530;9.200;2024-01-25T13:42:31;15.80;11.40
418;DHT22;49;48.530;9.200;2024-01-25T13:45:06;15.50;12.20
418;DHT22;49;48.530;9.200;2024-01-25T13:47:35;15.40;12.40
418;DHT22;49;48.530;9.200;2024-01-25T13:50:04;15.40;13.00
418;DHT22;49;48.530;9.200;2024-01-25T13:52:31;15.60;12.90
418;DHT22;49;48.530;9.200;2024-01-25T13:54:58;15.70;12.30
418;DHT22;49;48.530;9.200;2024-01-25T13:57:26;15.60;12.60
418;DHT22;49;48.530;9.200;2024-01-25T13:59:53;15.70;12.10
418;DHT22;49;48.530;9.200;2024-01-25T14:02:20;15.70;11.80
418;DHT22;49;48.530;9.200;2024-01-25T14:04:49;15.70;12.20
418;DHT22;49;48.530;9.200;2024-01-25T14:07:16;15.70;13.20
418;DHT22;49;48.530;9.200;2024-01-25T14:09:43;15.30;13.70
418;DHT22;49;48.530;9.200;2024-01-25T14:12:10;15.20;14.70
418;DHT22;49;48.530;9.200;2024-01-25T14:14:36;15.10;14.60
418;DHT22;49;48.530;9.200;2024-01-25T14:17:04;15.00;15.80
418;DHT22;49;48.530;9.200;2024-01-25T14:19:31;15.20;14.70
418;DHT22;49;48.530;9.200;2024-01-25T14:22:02;15.20;14.40
418;DHT22;49;48.530;9.200;2024-01-25T14:24:29;15.20;14.20
418;DHT22;49;48.530;9.200;2024-01-25T14:26:56;15.50;13.80
418;DHT22;49;48.530;9.200;2024-01-25T14:29:23;15.50;13.90
418;DHT22;49;48.530;9.200;2024-01-25T14:31:49;15.50;13.90
418;DHT22;49;48.530;9.200;2024-01-25T14:34:16;15.70;13.60
418;DHT22;49;48.530;9.200;2024-01-25T14:36:43;15.70;14.10
418;DHT22;49;48.530;9.200;2024-01-25T14:39:11;15.70;13.70
418;DHT22;49;48.530;9.200;2024-01-25T14:41:38;15.90;13.40
418;DHT22;49;48.530;9.200;2024-01-25T14:44:05;15.70;13.60
418;DHT22;49;48.530;9.200;2024-01-25T14:46:33;15.70;13.90
418;DHT22;49;48.530;9.200;2024-01-25T14:48:59;15.80;13.70
418;DHT22;49;48.530;9.200;2024-01-25T14:51:26;15.70;13.90
418;DHT22;49;48.530;9.200;2024-01-25T14:53:53;16.00;13.80
418;DHT22;49;48.530;9.200;2024-01-25T14:56:22;15.90;14.00
418;DHT22;49;48.530;9.200;2024-01-25T14:58:48;16.00;13.80
418;DHT22;49;48.530;9.200;2024-01-25T15:01:15;16.00;13.70
418;DHT22;49;48.530;9.200;2024-01-25T15:03:43;15.90;13.70
418;DHT22;49;48.530;9.200;2024-01-25T15:06:11;15.90;14.20
418;DHT22;49;48.530;9.200;2024-01-25T15:08:37;15.90;14.30
418;DHT22;49;48.530;9.200;2024-01-25T15:11:04;15.80;14.50
418;DHT22;49;48.530;9.200;2024-01-25T15:13:33;16.00;14.80
418;DHT22;49;48.530;9.200;2024-01-25T15:15:59;15.90;14.30
418;DHT22;49;48.530;9.200;2024-01-25T15:18:26;15.80;15.00
418;DHT22;49;48.530;9.200;2024-01-25T15:20:53;15.90;14.90
418;DHT22;49;48.530;9.200;2024-01-25T15:23:19;16.00;14.60
418;DHT22;49;48.530;9.200;2024-01-25T15:25:46;16.00;14.70
418;DHT22;49;48.530;9.200;2024-01-25T15:28:13;16.10;14.80
418;DHT22;49;48.530;9.200;2024-01-25T15:30:41;16.00;14.70
418;DHT22;49;48.530;9.200;2024-01-25T15:33:08;15.90;14.80
418;DHT22;49;48.530;9.200;2024-01-25T15:35:35;15.90;15.00
418;DHT22;49;48.530;9.200;2024-01-25T15:38:02;16.00;14.90
418;DHT22;49;48.530;9.200;2024-01-25T15:40:31;15.90;15.10
418;DHT22;49;48.530;9.200;2024-01-25T15:42:57;16.00;15.20
418;DHT22;49;48.530;9.200;2024-01-25T15:45:24;16.20;15.00
418;DHT22;49;48.530;9.200;2024-01-25T15:47:53;16.10;15.30
418;DHT22;49;48.530;9.200;2024-01-25T15:50:19;15.90;15.10
418;DHT22;49;48.530;9.200;2024-01-25T15:52:46;16.00;15.20
418;DHT22;49;48.530;9.200;2024-01-25T15:55:14;16.10;15.30
418;DHT22;49;48.530;9.200;2024-01-25T15:57:41;16.10;15.30
418;DHT22;49;48.530;9.200;2024-01-25T16:00:08;16.20;15.40
418;DHT22;49;48.530;9.200;2024-01-25T16:02:35;16.00;15.20
418;DHT22;49;48.530;9.200;2024-01-25T16:05:04;15.90;16.20
418;DHT22;49;48.530;9.200;2024-01-25T16:07:31;15.70;17.90
418;DHT22;49;48.530;9.200;2024-01-25T16:09:58;15.40;18.40
418;DHT22;49;48.530;9.200;2024-01-25T16:12:25;15.20;19.70
418;DHT22;49;48.530;9.200;2024-01-25T16:14:52;15.20;19.70
418;DHT22;49;48.530;9.200;2024-01-25T16:17:21;15.10;20.60
418;DHT22;49;48.530;9.200;2024-01-25T16:19:48;15.00;22.00
418;DHT22;49;48.530;9.200;2024-01-25T16:22:16;14.60;23.20
418;DHT22;49;48.530;9.200;2024-01-25T16:24:43;15.00;23.20
418;DHT22;49;48.530;9.200;2024-01-25T16:29:45;14.90;24.70
418;DHT22;49;48.530;9.200;2024-01-25T16:32:12;14.90;24.10
418;DHT22;49;48.530;9.200;2024-01-25T16:34:38;14.60;26.10
418;DHT22;49;48.530;9.200;2024-01-25T16:37:05;14.50;29.20
418;DHT22;49;48.530;9.200;2024-01-25T16:39:34;14.40;29.80
418;DHT22;49;48.530;9.200;2024-01-25T16:42:01;14.60;29.20
418;DHT22;49;48.530;9.200;2024-01-25T16:44:28;14.40;29.70
418;DHT22;49;48.530;9.200;2024-01-25T16:46:55;14.50;28.20
418;DHT22;49;48.530;9.200;2024-01-25T16:49:22;14.60;29.30
418;DHT22;49;48.530;9.200;2024-01-25T16:51:49;14.70;27.80
418;DHT22;49;48.530;9.200;2024-01-25T16:54:15;14.80;29.20
418;DHT22;49;48.530;9.200;2024-01-25T16:56:44;14.90;28.00
418;DHT22;49;48.530;9.200;2024-01-25T16:59:13;15.10;28.00